This is the latest recevied weather packets stored in our database for station/object N3WMC. If no packets are shown the sender has not sent any weather packets the latest 10 day(s).
| Time | Temp. | Humidity | Pressure | Rain* | Wind** | Luminosity | Snow |
|---|---|---|---|---|---|---|---|
| 1777927093 | 23.33° C | 45% | 1007.7 hPa | 0 mm | - | 123 W/m² | - |
| 1777926789 | 23.33° C | 44% | 1007.7 hPa | 0 mm | - | 491 W/m² | - |
| 1777926484 | 22.22° C | 45% | 1007.8 hPa | 0 mm | - | 506 W/m² | - |
| 1777926182 | 23.33° C | 44% | 1007.8 hPa | 0 mm | - | 83 W/m² | - |
| 1777925878 | 23.33° C | 43% | 1007.5 hPa | 0 mm | - | 469 W/m² | - |
| 1777925576 | 23.89° C | 43% | 1007.8 hPa | 0 mm | - | 544 W/m² | - |
| 1777925274 | 23.89° C | 42% | 1007.9 hPa | 0 mm | - | 490 W/m² | - |
| 1777924969 | 23.89° C | 42% | 1008 hPa | 0 mm | - | 533 W/m² | - |
| 1777924666 | 23.33° C | 42% | 1008 hPa | 0 mm | - | 588 W/m² | - |
| 1777924361 | 22.78° C | 45% | 1007.9 hPa | 0 mm | - | 633 W/m² | - |
| 1777924059 | 22.22° C | 44% | 1008 hPa | 0 mm | - | 223 W/m² | - |
| 1777923755 | 22.22° C | 44% | 1007.9 hPa | 0 mm | - | 162 W/m² | - |
| 1777923451 | 23.33° C | 42% | 1008.1 hPa | 0 mm | - | 159 W/m² | - |
| 1777923149 | 22.78° C | 43% | 1008.3 hPa | 0 mm | - | 573 W/m² | - |
| 1777922847 | 23.33° C | 43% | 1008.1 hPa | 0 mm | - | 647 W/m² | - |
| 1777922545 | 23.89° C | 42% | 1008.3 hPa | 0 mm | - | 650 W/m² | - |
| 1777922243 | 23.33° C | 42% | 1008.3 hPa | 0 mm | - | 655 W/m² | - |
| 1777921940 | 22.22° C | 44% | 1008.3 hPa | 0 mm | - | 704 W/m² | - |
| 1777921635 | 21.67° C | 45% | 1008.4 hPa | 0 mm | - | 233 W/m² | - |
| 1777921332 | 21.67° C | 44% | 1008.7 hPa | 0 mm | - | 225 W/m² | - |
| 1777921029 | 22.22° C | 44% | 1008.5 hPa | 0 mm | - | 207 W/m² | - |
| 1777920725 | 22.78° C | 44% | 1008.7 hPa | 0 mm | - | 204 W/m² | - |
| 1777920421 | 22.78° C | 42% | 1008.7 hPa | 0 mm | - | 710 W/m² | - |
| 1777920116 | 22.78° C | 43% | 1008.9 hPa | 0 mm | - | 184 W/m² | - |
| 1777919813 | 22.78° C | 43% | 1008.6 hPa | 0 mm | - | 665 W/m² | - |
* Rain latest hour (hover to see other rain measurements)
** Current wind speed in m/s (hover to see current wind gust speed)